sensor_id;sensor_type;location;lat;lon;timestamp;temperature;humidity
13673;DHT22;6909;52.202;9.876;2022-08-03T00:01:29;18.60;99.90
13673;DHT22;6909;52.202;9.876;2022-08-03T00:03:55;18.60;99.90
13673;DHT22;6909;52.202;9.876;2022-08-03T00:06:22;18.50;99.90
13673;DHT22;6909;52.202;9.876;2022-08-03T00:08:49;18.40;99.90
13673;DHT22;6909;52.202;9.876;2022-08-03T00:11:15;18.30;99.90
13673;DHT22;6909;52.202;9.876;2022-08-03T00:13:42;18.20;99.90
13673;DHT22;6909;52.202;9.876;2022-08-03T00:16:10;18.20;99.90
13673;DHT22;6909;52.202;9.876;2022-08-03T00:18:38;18.10;99.90
13673;DHT22;6909;52.202;9.876;2022-08-03T00:21:05;18.00;99.90
13673;DHT22;6909;52.202;9.876;2022-08-03T00:23:32;17.90;99.90
13673;DHT22;6909;52.202;9.876;2022-08-03T00:25:59;17.90;1.00
13673;DHT22;6909;52.202;9.876;2022-08-03T00:28:26;17.90;1.00
13673;DHT22;6909;52.202;9.876;2022-08-03T00:30:52;17.80;1.00
13673;DHT22;6909;52.202;9.876;2022-08-03T00:33:22;17.90;1.00
13673;DHT22;6909;52.202;9.876;2022-08-03T00:35:48;17.90;1.00
13673;DHT22;6909;52.202;9.876;2022-08-03T00:38:15;17.90;1.00
13673;DHT22;6909;52.202;9.876;2022-08-03T00:40:42;17.80;1.00
13673;DHT22;6909;52.202;9.876;2022-08-03T00:43:08;17.80;1.00
13673;DHT22;6909;52.202;9.876;2022-08-03T00:45:38;17.70;1.00
13673;DHT22;6909;52.202;9.876;2022-08-03T00:48:06;17.70;1.00
13673;DHT22;6909;52.202;9.876;2022-08-03T00:50:38;17.80;1.00
13673;DHT22;6909;52.202;9.876;2022-08-03T00:53:09;17.80;1.00
13673;DHT22;6909;52.202;9.876;2022-08-03T00:55:37;17.70;99.90
13673;DHT22;6909;52.202;9.876;2022-08-03T00:58:04;17.80;93.20
13673;DHT22;6909;52.202;9.876;2022-08-03T01:00:33;17.80;99.90
13673;DHT22;6909;52.202;9.876;2022-08-03T01:03:03;17.70;99.90
13673;DHT22;6909;52.202;9.876;2022-08-03T01:05:32;17.70;99.90
13673;DHT22;6909;52.202;9.876;2022-08-03T01:08:07;17.80;99.90
13673;DHT22;6909;52.202;9.876;2022-08-03T01:10:44;17.80;99.90
13673;DHT22;6909;52.202;9.876;2022-08-03T01:13:21;17.70;99.90
13673;DHT22;6909;52.202;9.876;2022-08-03T01:15:55;17.60;99.90
13673;DHT22;6909;52.202;9.876;2022-08-03T01:18:30;17.50;99.90
13673;DHT22;6909;52.202;9.876;2022-08-03T01:20:58;17.60;99.90
13673;DHT22;6909;52.202;9.876;2022-08-03T01:23:36;17.70;99.90
13673;DHT22;6909;52.202;9.876;2022-08-03T01:26:32;17.70;99.90
13673;DHT22;6909;52.202;9.876;2022-08-03T01:29:10;17.60;99.90
13673;DHT22;6909;52.202;9.876;2022-08-03T01:31:47;17.50;99.90
13673;DHT22;6909;52.202;9.876;2022-08-03T01:34:16;17.50;99.90
13673;DHT22;6909;52.202;9.876;2022-08-03T01:36:53;17.50;1.00
13673;DHT22;6909;52.202;9.876;2022-08-03T01:39:21;17.50;1.00
13673;DHT22;6909;52.202;9.876;2022-08-03T01:41:54;17.40;1.00
13673;DHT22;6909;52.202;9.876;2022-08-03T01:44:24;17.50;1.00
13673;DHT22;6909;52.202;9.876;2022-08-03T01:46:53;17.50;1.00
13673;DHT22;6909;52.202;9.876;2022-08-03T01:49:21;17.40;1.00
13673;DHT22;6909;52.202;9.876;2022-08-03T01:51:49;17.40;1.00
13673;DHT22;6909;52.202;9.876;2022-08-03T01:54:17;17.20;1.00
13673;DHT22;6909;52.202;9.876;2022-08-03T01:56:45;17.20;1.00
13673;DHT22;6909;52.202;9.876;2022-08-03T01:59:14;17.20;1.00
13673;DHT22;6909;52.202;9.876;2022-08-03T02:01:42;17.20;1.00
13673;DHT22;6909;52.202;9.876;2022-08-03T02:04:12;17.20;1.00
13673;DHT22;6909;52.202;9.876;2022-08-03T02:06:39;17.20;1.00
13673;DHT22;6909;52.202;9.876;2022-08-03T02:09:07;17.10;1.00
13673;DHT22;6909;52.202;9.876;2022-08-03T02:11:35;17.10;33.60
13673;DHT22;6909;52.202;9.876;2022-08-03T02:14:04;17.10;99.90
13673;DHT22;6909;52.202;9.876;2022-08-03T02:16:32;17.10;99.90
13673;DHT22;6909;52.202;9.876;2022-08-03T02:19:01;17.10;99.90
13673;DHT22;6909;52.202;9.876;2022-08-03T02:21:32;17.20;99.90
13673;DHT22;6909;52.202;9.876;2022-08-03T02:24:01;17.20;99.90
13673;DHT22;6909;52.202;9.876;2022-08-03T02:26:29;17.20;99.90
13673;DHT22;6909;52.202;9.876;2022-08-03T02:28:59;17.20;99.90
13673;DHT22;6909;52.202;9.876;2022-08-03T02:31:29;17.20;99.90
13673;DHT22;6909;52.202;9.876;2022-08-03T02:33:59;17.10;99.90
13673;DHT22;6909;52.202;9.876;2022-08-03T02:36:28;17.10;99.90
13673;DHT22;6909;52.202;9.876;2022-08-03T02:38:58;17.10;99.90
13673;DHT22;6909;52.202;9.876;2022-08-03T02:41:30;17.10;99.90
13673;DHT22;6909;52.202;9.876;2022-08-03T02:43:59;17.00;99.90
13673;DHT22;6909;52.202;9.876;2022-08-03T02:46:29;17.00;99.90
13673;DHT22;6909;52.202;9.876;2022-08-03T02:48:58;16.90;99.90
13673;DHT22;6909;52.202;9.876;2022-08-03T02:51:27;16.90;1.00
13673;DHT22;6909;52.202;9.876;2022-08-03T02:53:57;16.90;1.00
13673;DHT22;6909;52.202;9.876;2022-08-03T02:56:25;17.00;1.00
13673;DHT22;6909;52.202;9.876;2022-08-03T02:58:54;16.90;1.00
13673;DHT22;6909;52.202;9.876;2022-08-03T03:01:22;16.90;1.00
13673;DHT22;6909;52.202;9.876;2022-08-03T03:03:50;16.80;1.00
13673;DHT22;6909;52.202;9.876;2022-08-03T03:06:18;16.90;1.00
13673;DHT22;6909;52.202;9.876;2022-08-03T03:08:44;16.90;1.00
13673;DHT22;6909;52.202;9.876;2022-08-03T03:11:14;16.90;1.00
13673;DHT22;6909;52.202;9.876;2022-08-03T03:13:44;16.90;1.00
13673;DHT22;6909;52.202;9.876;2022-08-03T03:16:13;16.90;1.00
13673;DHT22;6909;52.202;9.876;2022-08-03T03:18:42;17.00;1.00
13673;DHT22;6909;52.202;9.876;2022-08-03T03:21:10;16.90;1.00
13673;DHT22;6909;52.202;9.876;2022-08-03T03:23:39;16.90;1.00
13673;DHT22;6909;52.202;9.876;2022-08-03T03:26:07;16.80;1.00
13673;DHT22;6909;52.202;9.876;2022-08-03T03:28:35;16.60;1.00
13673;DHT22;6909;52.202;9.876;2022-08-03T03:31:03;16.60;1.00
13673;DHT22;6909;52.202;9.876;2022-08-03T03:33:30;16.50;1.00
13673;DHT22;6909;52.202;9.876;2022-08-03T03:35:58;16.50;1.00
13673;DHT22;6909;52.202;9.876;2022-08-03T03:38:25;16.50;11.40
13673;DHT22;6909;52.202;9.876;2022-08-03T03:40:52;16.40;99.90
13673;DHT22;6909;52.202;9.876;2022-08-03T03:43:19;16.50;99.90
13673;DHT22;6909;52.202;9.876;2022-08-03T03:45:47;16.50;99.90
13673;DHT22;6909;52.202;9.876;2022-08-03T03:48:15;16.50;1.00
13673;DHT22;6909;52.202;9.876;2022-08-03T03:50:43;16.50;1.00
13673;DHT22;6909;52.202;9.876;2022-08-03T03:53:10;16.50;1.00
13673;DHT22;6909;52.202;9.876;2022-08-03T03:55:37;16.60;1.00
13673;DHT22;6909;52.202;9.876;2022-08-03T03:58:05;16.50;1.00
13673;DHT22;6909;52.202;9.876;2022-08-03T04:00:32;16.60;1.00
13673;DHT22;6909;52.202;9.876;2022-08-03T04:03:00;16.60;1.00
13673;DHT22;6909;52.202;9.876;2022-08-03T04:05:26;16.60;1.00
13673;DHT22;6909;52.202;9.876;2022-08-03T04:08:13;16.60;1.00
13673;DHT22;6909;52.202;9.876;2022-08-03T04:11:06;16.60;1.00
13673;DHT22;6909;52.202;9.876;2022-08-03T04:13:36;16.60;1.00
13673;DHT22;6909;52.202;9.876;2022-08-03T04:16:04;16.60;1.00
13673;DHT22;6909;52.202;9.876;2022-08-03T04:18:34;16.60;1.00
13673;DHT22;6909;52.202;9.876;2022-08-03T04:21:05;16.60;1.00
13673;DHT22;6909;52.202;9.876;2022-08-03T04:23:36;16.70;1.00
13673;DHT22;6909;52.202;9.876;2022-08-03T04:26:04;16.80;1.00
13673;DHT22;6909;52.202;9.876;2022-08-03T04:28:34;16.80;1.00
13673;DHT22;6909;52.202;9.876;2022-08-03T04:31:03;16.90;1.00
13673;DHT22;6909;52.202;9.876;2022-08-03T04:33:33;16.90;1.00
13673;DHT22;6909;52.202;9.876;2022-08-03T04:36:04;17.00;1.00
13673;DHT22;6909;52.202;9.876;2022-08-03T04:38:36;17.00;1.00
13673;DHT22;6909;52.202;9.876;2022-08-03T04:41:04;17.10;1.00
13673;DHT22;6909;52.202;9.876;2022-08-03T04:43:32;17.20;99.90
13673;DHT22;6909;52.202;9.876;2022-08-03T04:46:00;17.30;99.90
13673;DHT22;6909;52.202;9.876;2022-08-03T04:48:27;17.40;99.90
13673;DHT22;6909;52.202;9.876;2022-08-03T04:50:56;17.60;1.00
13673;DHT22;6909;52.202;9.876;2022-08-03T04:53:22;17.70;1.00
13673;DHT22;6909;52.202;9.876;2022-08-03T04:55:49;17.90;1.00
13673;DHT22;6909;52.202;9.876;2022-08-03T04:58:16;18.10;1.00
13673;DHT22;6909;52.202;9.876;2022-08-03T05:00:42;18.40;1.00
13673;DHT22;6909;52.202;9.876;2022-08-03T05:03:09;19.20;99.90
13673;DHT22;6909;52.202;9.876;2022-08-03T05:05:36;20.60;1.00
13673;DHT22;6909;52.202;9.876;2022-08-03T05:08:04;22.20;1.00
13673;DHT22;6909;52.202;9.876;2022-08-03T05:10:31;23.50;1.00
13673;DHT22;6909;52.202;9.876;2022-08-03T05:12:57;24.20;99.90
13673;DHT22;6909;52.202;9.876;2022-08-03T05:15:24;24.70;99.90
13673;DHT22;6909;52.202;9.876;2022-08-03T05:17:51;24.60;1.00
13673;DHT22;6909;52.202;9.876;2022-08-03T05:20:17;24.60;1.00
13673;DHT22;6909;52.202;9.876;2022-08-03T05:22:44;25.10;1.00
13673;DHT22;6909;52.202;9.876;2022-08-03T05:25:12;25.50;1.00
13673;DHT22;6909;52.202;9.876;2022-08-03T05:27:39;25.80;99.90
13673;DHT22;6909;52.202;9.876;2022-08-03T05:30:06;26.50;99.90
13673;DHT22;6909;52.202;9.876;2022-08-03T05:32:33;27.10;68.10
13673;DHT22;6909;52.202;9.876;2022-08-03T05:35:00;27.30;1.00
13673;DHT22;6909;52.202;9.876;2022-08-03T05:37:26;27.50;1.00
13673;DHT22;6909;52.202;9.876;2022-08-03T05:39:53;27.10;1.00
13673;DHT22;6909;52.202;9.876;2022-08-03T05:42:21;27.60;1.00
13673;DHT22;6909;52.202;9.876;2022-08-03T05:44:47;28.60;1.00
13673;DHT22;6909;52.202;9.876;2022-08-03T05:47:14;27.80;1.00
13673;DHT22;6909;52.202;9.876;2022-08-03T05:49:41;28.00;1.00
13673;DHT22;6909;52.202;9.876;2022-08-03T05:52:07;28.80;99.90
13673;DHT22;6909;52.202;9.876;2022-08-03T05:54:34;28.90;99.90
13673;DHT22;6909;52.202;9.876;2022-08-03T05:57:00;29.20;99.90
13673;DHT22;6909;52.202;9.876;2022-08-03T05:59:28;29.20;99.90
13673;DHT22;6909;52.202;9.876;2022-08-03T06:01:55;29.60;99.90
13673;DHT22;6909;52.202;9.876;2022-08-03T06:04:22;29.00;99.90
13673;DHT22;6909;52.202;9.876;2022-08-03T06:06:48;29.50;99.90
13673;DHT22;6909;52.202;9.876;2022-08-03T06:09:15;30.00;99.90
13673;DHT22;6909;52.202;9.876;2022-08-03T06:11:42;30.40;99.90
13673;DHT22;6909;52.202;9.876;2022-08-03T06:14:08;30.50;99.90
13673;DHT22;6909;52.202;9.876;2022-08-03T06:16:36;30.00;99.90
13673;DHT22;6909;52.202;9.876;2022-08-03T06:19:03;30.40;99.90
13673;DHT22;6909;52.202;9.876;2022-08-03T06:21:30;30.20;99.90
13673;DHT22;6909;52.202;9.876;2022-08-03T06:23:56;30.70;99.90
13673;DHT22;6909;52.202;9.876;2022-08-03T06:26:24;31.10;99.90
13673;DHT22;6909;52.202;9.876;2022-08-03T06:28:51;31.00;94.60
13673;DHT22;6909;52.202;9.876;2022-08-03T06:31:19;31.80;94.40
13673;DHT22;6909;52.202;9.876;2022-08-03T06:33:48;31.60;56.30
13673;DHT22;6909;52.202;9.876;2022-08-03T06:36:15;30.80;15.40
13673;DHT22;6909;52.202;9.876;2022-08-03T06:38:41;30.90;2.40
13673;DHT22;6909;52.202;9.876;2022-08-03T06:41:08;31.20;1.00
13673;DHT22;6909;52.202;9.876;2022-08-03T06:43:35;31.20;1.00
13673;DHT22;6909;52.202;9.876;2022-08-03T06:46:02;32.20;6.20
13673;DHT22;6909;52.202;9.876;2022-08-03T06:48:30;32.80;7.50
13673;DHT22;6909;52.202;9.876;2022-08-03T06:50:58;34.20;16.80
13673;DHT22;6909;52.202;9.876;2022-08-03T06:53:25;34.60;15.50
13673;DHT22;6909;52.202;9.876;2022-08-03T06:55:52;34.60;6.30
13673;DHT22;6909;52.202;9.876;2022-08-03T06:58:18;34.50;1.00
13673;DHT22;6909;52.202;9.876;2022-08-03T07:00:45;33.50;1.00
13673;DHT22;6909;52.202;9.876;2022-08-03T07:03:15;33.50;1.00
13673;DHT22;6909;52.202;9.876;2022-08-03T07:05:46;33.50;1.00
13673;DHT22;6909;52.202;9.876;2022-08-03T07:08:18;33.30;1.00
13673;DHT22;6909;52.202;9.876;2022-08-03T07:10:54;32.60;1.00
13673;DHT22;6909;52.202;9.876;2022-08-03T07:13:21;32.50;1.00
13673;DHT22;6909;52.202;9.876;2022-08-03T07:15:48;32.70;1.00
13673;DHT22;6909;52.202;9.876;2022-08-03T07:18:14;32.20;1.00
13673;DHT22;6909;52.202;9.876;2022-08-03T07:20:41;32.10;1.00
13673;DHT22;6909;52.202;9.876;2022-08-03T07:23:08;32.40;1.00
13673;DHT22;6909;52.202;9.876;2022-08-03T07:25:36;32.80;1.00
13673;DHT22;6909;52.202;9.876;2022-08-03T07:28:03;33.30;1.00
13673;DHT22;6909;52.202;9.876;2022-08-03T07:30:30;33.00;1.00
13673;DHT22;6909;52.202;9.876;2022-08-03T07:32:56;33.10;1.00
13673;DHT22;6909;52.202;9.876;2022-08-03T07:35:23;34.40;1.00
13673;DHT22;6909;52.202;9.876;2022-08-03T07:37:50;33.60;1.00
13673;DHT22;6909;52.202;9.876;2022-08-03T07:40:17;33.20;1.00
13673;DHT22;6909;52.202;9.876;2022-08-03T07:42:45;33.40;1.00
13673;DHT22;6909;52.202;9.876;2022-08-03T07:45:12;34.10;1.00
13673;DHT22;6909;52.202;9.876;2022-08-03T07:47:38;34.10;1.00
13673;DHT22;6909;52.202;9.876;2022-08-03T07:50:06;34.30;1.00
13673;DHT22;6909;52.202;9.876;2022-08-03T07:52:33;34.50;1.00
13673;DHT22;6909;52.202;9.876;2022-08-03T07:55:17;35.40;1.00
13673;DHT22;6909;52.202;9.876;2022-08-03T07:57:44;34.80;1.00
13673;DHT22;6909;52.202;9.876;2022-08-03T08:00:15;34.70;1.00
13673;DHT22;6909;52.202;9.876;2022-08-03T08:02:42;34.90;1.00
13673;DHT22;6909;52.202;9.876;2022-08-03T08:05:09;34.60;1.00
13673;DHT22;6909;52.202;9.876;2022-08-03T08:07:37;34.90;1.00
13673;DHT22;6909;52.202;9.876;2022-08-03T08:10:05;35.60;1.00
13673;DHT22;6909;52.202;9.876;2022-08-03T08:12:32;35.70;1.00
13673;DHT22;6909;52.202;9.876;2022-08-03T08:14:58;35.30;1.00
13673;DHT22;6909;52.202;9.876;2022-08-03T08:17:26;35.50;1.00
13673;DHT22;6909;52.202;9.876;2022-08-03T08:19:53;35.50;1.00
13673;DHT22;6909;52.202;9.876;2022-08-03T08:22:20;35.20;1.00
13673;DHT22;6909;52.202;9.876;2022-08-03T08:24:46;35.10;1.00
13673;DHT22;6909;52.202;9.876;2022-08-03T08:27:13;34.80;1.00
13673;DHT22;6909;52.202;9.876;2022-08-03T08:29:40;34.90;1.00
13673;DHT22;6909;52.202;9.876;2022-08-03T08:32:07;34.00;1.00
13673;DHT22;6909;52.202;9.876;2022-08-03T08:34:36;33.30;1.00
13673;DHT22;6909;52.202;9.876;2022-08-03T08:37:03;33.40;1.00
13673;DHT22;6909;52.202;9.876;2022-08-03T08:39:30;32.80;1.00
13673;DHT22;6909;52.202;9.876;2022-08-03T08:41:56;32.70;1.00
13673;DHT22;6909;52.202;9.876;2022-08-03T08:44:23;33.10;1.00
13673;DHT22;6909;52.202;9.876;2022-08-03T08:46:51;33.20;1.00
13673;DHT22;6909;52.202;9.876;2022-08-03T08:49:22;34.20;1.00
13673;DHT22;6909;52.202;9.876;2022-08-03T08:51:50;34.50;1.00
13673;DHT22;6909;52.202;9.876;2022-08-03T08:54:20;33.70;1.00
13673;DHT22;6909;52.202;9.876;2022-08-03T08:56:48;33.20;1.00
13673;DHT22;6909;52.202;9.876;2022-08-03T08:59:16;32.90;1.00
13673;DHT22;6909;52.202;9.876;2022-08-03T09:01:43;32.90;1.00
13673;DHT22;6909;52.202;9.876;2022-08-03T09:04:10;32.60;1.00
13673;DHT22;6909;52.202;9.876;2022-08-03T09:06:37;32.80;1.00
13673;DHT22;6909;52.202;9.876;2022-08-03T09:09:06;32.80;1.00
13673;DHT22;6909;52.202;9.876;2022-08-03T09:11:33;32.70;1.00
13673;DHT22;6909;52.202;9.876;2022-08-03T09:14:00;32.50;1.00
13673;DHT22;6909;52.202;9.876;2022-08-03T09:16:26;32.40;1.00
13673;DHT22;6909;52.202;9.876;2022-08-03T09:18:53;32.10;1.00
13673;DHT22;6909;52.202;9.876;2022-08-03T09:21:22;31.70;1.00
13673;DHT22;6909;52.202;9.876;2022-08-03T09:23:50;31.50;1.00
13673;DHT22;6909;52.202;9.876;2022-08-03T09:26:23;31.50;1.00
13673;DHT22;6909;52.202;9.876;2022-08-03T09:28:57;31.20;1.00
13673;DHT22;6909;52.202;9.876;2022-08-03T09:31:32;31.40;1.00
13673;DHT22;6909;52.202;9.876;2022-08-03T09:34:01;31.10;1.00
13673;DHT22;6909;52.202;9.876;2022-08-03T09:36:35;30.80;1.00
13673;DHT22;6909;52.202;9.876;2022-08-03T09:39:03;30.70;1.00
13673;DHT22;6909;52.202;9.876;2022-08-03T09:41:32;30.80;1.00
13673;DHT22;6909;52.202;9.876;2022-08-03T09:43:59;30.70;1.00
13673;DHT22;6909;52.202;9.876;2022-08-03T09:46:26;30.50;1.00
13673;DHT22;6909;52.202;9.876;2022-08-03T09:49:08;30.70;1.00
13673;DHT22;6909;52.202;9.876;2022-08-03T09:51:36;30.50;1.00
13673;DHT22;6909;52.202;9.876;2022-08-03T09:54:03;30.80;1.00
13673;DHT22;6909;52.202;9.876;2022-08-03T09:56:45;30.80;1.00
13673;DHT22;6909;52.202;9.876;2022-08-03T09:59:13;30.80;1.00
13673;DHT22;6909;52.202;9.876;2022-08-03T10:01:48;30.90;1.00
13673;DHT22;6909;52.202;9.876;2022-08-03T10:04:15;31.00;1.00
13673;DHT22;6909;52.202;9.876;2022-08-03T10:06:43;31.10;1.00
13673;DHT22;6909;52.202;9.876;2022-08-03T10:09:11;30.90;1.00
13673;DHT22;6909;52.202;9.876;2022-08-03T10:11:39;31.20;1.00
13673;DHT22;6909;52.202;9.876;2022-08-03T10:14:09;31.00;1.00
13673;DHT22;6909;52.202;9.876;2022-08-03T10:16:43;30.90;1.00
13673;DHT22;6909;52.202;9.876;2022-08-03T10:19:11;30.90;1.00
13673;DHT22;6909;52.202;9.876;2022-08-03T10:21:42;31.00;1.00
13673;DHT22;6909;52.202;9.876;2022-08-03T10:24:13;31.10;1.00
13673;DHT22;6909;52.202;9.876;2022-08-03T10:26:44;30.80;1.00
13673;DHT22;6909;52.202;9.876;2022-08-03T10:29:19;31.00;1.00
13673;DHT22;6909;52.202;9.876;2022-08-03T10:31:47;31.30;1.00
13673;DHT22;6909;52.202;9.876;2022-08-03T10:34:18;31.40;1.00
13673;DHT22;6909;52.202;9.876;2022-08-03T10:36:48;31.70;1.00
13673;DHT22;6909;52.202;9.876;2022-08-03T10:39:18;31.80;1.00
13673;DHT22;6909;52.202;9.876;2022-08-03T10:41:48;31.50;1.00
13673;DHT22;6909;52.202;9.876;2022-08-03T10:44:18;31.60;1.00
13673;DHT22;6909;52.202;9.876;2022-08-03T10:46:46;31.70;1.00
13673;DHT22;6909;52.202;9.876;2022-08-03T10:49:16;31.50;1.00
13673;DHT22;6909;52.202;9.876;2022-08-03T10:51:44;31.40;1.00
13673;DHT22;6909;52.202;9.876;2022-08-03T10:54:37;31.30;1.00
13673;DHT22;6909;52.202;9.876;2022-08-03T10:57:44;31.50;1.00
13673;DHT22;6909;52.202;9.876;2022-08-03T11:00:13;31.90;1.00
13673;DHT22;6909;52.202;9.876;2022-08-03T11:03:09;31.80;1.00
13673;DHT22;6909;52.202;9.876;2022-08-03T11:05:40;31.90;1.00
13673;DHT22;6909;52.202;9.876;2022-08-03T11:08:22;32.10;1.00
13673;DHT22;6909;52.202;9.876;2022-08-03T11:10:51;32.10;1.00
13673;DHT22;6909;52.202;9.876;2022-08-03T11:13:19;32.10;1.00
13673;DHT22;6909;52.202;9.876;2022-08-03T11:15:50;32.00;1.00
13673;DHT22;6909;52.202;9.876;2022-08-03T11:18:17;31.80;1.00
13673;DHT22;6909;52.202;9.876;2022-08-03T11:20:45;31.80;1.00
13673;DHT22;6909;52.202;9.876;2022-08-03T11:23:12;31.80;1.00
13673;DHT22;6909;52.202;9.876;2022-08-03T11:26:08;31.50;1.00
13673;DHT22;6909;52.202;9.876;2022-08-03T11:28:35;31.70;1.00
13673;DHT22;6909;52.202;9.876;2022-08-03T11:31:43;31.70;1.00
13673;DHT22;6909;52.202;9.876;2022-08-03T11:34:12;31.70;1.00
13673;DHT22;6909;52.202;9.876;2022-08-03T11:37:17;31.90;1.00
13673;DHT22;6909;52.202;9.876;2022-08-03T11:39:47;31.70;1.00
13673;DHT22;6909;52.202;9.876;2022-08-03T11:42:42;31.60;1.00
13673;DHT22;6909;52.202;9.876;2022-08-03T11:45:10;31.80;1.00
13673;DHT22;6909;52.202;9.876;2022-08-03T11:47:39;31.90;1.00
13673;DHT22;6909;52.202;9.876;2022-08-03T11:50:07;31.90;1.00
13673;DHT22;6909;52.202;9.876;2022-08-03T11:52:36;31.80;1.00
13673;DHT22;6909;52.202;9.876;2022-08-03T11:55:14;31.70;1.00
13673;DHT22;6909;52.202;9.876;2022-08-03T11:57:41;31.80;1.00
13673;DHT22;6909;52.202;9.876;2022-08-03T12:00:31;31.90;1.00
13673;DHT22;6909;52.202;9.876;2022-08-03T12:03:04;32.20;1.00
13673;DHT22;6909;52.202;9.876;2022-08-03T12:05:39;32.50;1.00
13673;DHT22;6909;52.202;9.876;2022-08-03T12:08:08;32.30;1.00
13673;DHT22;6909;52.202;9.876;2022-08-03T12:10:35;32.40;1.00
13673;DHT22;6909;52.202;9.876;2022-08-03T12:13:04;32.50;1.00
13673;DHT22;6909;52.202;9.876;2022-08-03T12:15:33;32.60;1.00
13673;DHT22;6909;52.202;9.876;2022-08-03T12:18:02;32.60;1.00
13673;DHT22;6909;52.202;9.876;2022-08-03T12:20:30;32.80;1.00
13673;DHT22;6909;52.202;9.876;2022-08-03T12:23:03;32.90;1.00
13673;DHT22;6909;52.202;9.876;2022-08-03T12:25:30;32.50;1.00
13673;DHT22;6909;52.202;9.876;2022-08-03T12:28:07;32.70;1.00
13673;DHT22;6909;52.202;9.876;2022-08-03T12:30:34;32.70;1.00
13673;DHT22;6909;52.202;9.876;2022-08-03T12:33:19;32.60;1.00
13673;DHT22;6909;52.202;9.876;2022-08-03T12:35:47;32.70;1.00
13673;DHT22;6909;52.202;9.876;2022-08-03T12:38:19;32.60;1.00
13673;DHT22;6909;52.202;9.876;2022-08-03T12:40:55;32.30;1.00
13673;DHT22;6909;52.202;9.876;2022-08-03T12:43:22;32.30;1.00
13673;DHT22;6909;52.202;9.876;2022-08-03T12:45:48;32.70;1.00
13673;DHT22;6909;52.202;9.876;2022-08-03T12:48:16;32.70;1.00
13673;DHT22;6909;52.202;9.876;2022-08-03T12:50:43;32.90;1.00
13673;DHT22;6909;52.202;9.876;2022-08-03T12:53:09;33.00;1.00
13673;DHT22;6909;52.202;9.876;2022-08-03T12:55:37;32.90;1.00
13673;DHT22;6909;52.202;9.876;2022-08-03T12:58:05;32.90;1.00
13673;DHT22;6909;52.202;9.876;2022-08-03T13:00:32;32.80;1.00
13673;DHT22;6909;52.202;9.876;2022-08-03T13:03:00;33.00;1.00
13673;DHT22;6909;52.202;9.876;2022-08-03T13:05:29;32.90;1.00
13673;DHT22;6909;52.202;9.876;2022-08-03T13:07:57;32.70;1.00
13673;DHT22;6909;52.202;9.876;2022-08-03T13:10:28;32.50;1.00
13673;DHT22;6909;52.202;9.876;2022-08-03T13:12:55;32.20;1.00
13673;DHT22;6909;52.202;9.876;2022-08-03T13:15:23;32.20;1.00
13673;DHT22;6909;52.202;9.876;2022-08-03T13:17:52;32.30;1.00
13673;DHT22;6909;52.202;9.876;2022-08-03T13:20:19;32.50;1.00
13673;DHT22;6909;52.202;9.876;2022-08-03T13:22:47;32.80;1.00
13673;DHT22;6909;52.202;9.876;2022-08-03T13:25:15;32.80;1.00
13673;DHT22;6909;52.202;9.876;2022-08-03T13:27:42;32.70;1.00
13673;DHT22;6909;52.202;9.876;2022-08-03T13:30:09;32.40;1.00
13673;DHT22;6909;52.202;9.876;2022-08-03T13:32:36;32.60;1.00
13673;DHT22;6909;52.202;9.876;2022-08-03T13:35:03;32.70;1.00
13673;DHT22;6909;52.202;9.876;2022-08-03T13:37:30;32.50;1.00
13673;DHT22;6909;52.202;9.876;2022-08-03T13:39:59;32.30;1.00
13673;DHT22;6909;52.202;9.876;2022-08-03T13:42:27;32.40;1.00
13673;DHT22;6909;52.202;9.876;2022-08-03T13:44:54;32.30;1.00
13673;DHT22;6909;52.202;9.876;2022-08-03T13:47:21;32.30;1.00
13673;DHT22;6909;52.202;9.876;2022-08-03T13:49:47;32.10;1.00
13673;DHT22;6909;52.202;9.876;2022-08-03T13:52:15;31.90;1.00
13673;DHT22;6909;52.202;9.876;2022-08-03T13:54:42;31.90;1.00
13673;DHT22;6909;52.202;9.876;2022-08-03T13:57:10;31.80;1.00
13673;DHT22;6909;52.202;9.876;2022-08-03T13:59:37;31.80;1.00
13673;DHT22;6909;52.202;9.876;2022-08-03T14:02:03;31.70;1.00
13673;DHT22;6909;52.202;9.876;2022-08-03T14:04:30;31.80;1.00
13673;DHT22;6909;52.202;9.876;2022-08-03T14:06:57;32.10;1.00
13673;DHT22;6909;52.202;9.876;2022-08-03T14:09:23;32.50;1.00
13673;DHT22;6909;52.202;9.876;2022-08-03T14:11:50;32.50;1.00
13673;DHT22;6909;52.202;9.876;2022-08-03T14:14:18;32.50;1.00
13673;DHT22;6909;52.202;9.876;2022-08-03T14:16:44;32.50;1.00
13673;DHT22;6909;52.202;9.876;2022-08-03T14:19:11;32.40;1.00
13673;DHT22;6909;52.202;9.876;2022-08-03T14:21:38;32.70;1.00
13673;DHT22;6909;52.202;9.876;2022-08-03T14:24:05;32.70;1.00
13673;DHT22;6909;52.202;9.876;2022-08-03T14:26:31;32.70;1.00
13673;DHT22;6909;52.202;9.876;2022-08-03T14:28:58;32.60;1.00
13673;DHT22;6909;52.202;9.876;2022-08-03T14:31:26;32.50;1.00
13673;DHT22;6909;52.202;9.876;2022-08-03T14:33:53;32.50;1.00
13673;DHT22;6909;52.202;9.876;2022-08-03T14:36:19;32.60;1.00
13673;DHT22;6909;52.202;9.876;2022-08-03T14:38:46;32.70;1.00
13673;DHT22;6909;52.202;9.876;2022-08-03T14:41:12;32.70;1.00
13673;DHT22;6909;52.202;9.876;2022-08-03T14:43:39;32.80;1.00
13673;DHT22;6909;52.202;9.876;2022-08-03T14:46:06;32.70;1.00
13673;DHT22;6909;52.202;9.876;2022-08-03T14:48:34;32.90;1.00
13673;DHT22;6909;52.202;9.876;2022-08-03T14:51:00;32.80;1.00
13673;DHT22;6909;52.202;9.876;2022-08-03T14:53:27;32.80;1.00
13673;DHT22;6909;52.202;9.876;2022-08-03T14:55:57;32.70;1.00
13673;DHT22;6909;52.202;9.876;2022-08-03T14:58:24;32.70;1.00
13673;DHT22;6909;52.202;9.876;2022-08-03T15:00:55;32.50;1.00
13673;DHT22;6909;52.202;9.876;2022-08-03T15:03:22;32.30;1.00
13673;DHT22;6909;52.202;9.876;2022-08-03T15:05:51;32.40;1.00
13673;DHT22;6909;52.202;9.876;2022-08-03T15:08:18;32.30;1.00
13673;DHT22;6909;52.202;9.876;2022-08-03T15:10:45;32.20;1.00
13673;DHT22;6909;52.202;9.876;2022-08-03T15:13:12;32.20;1.00
13673;DHT22;6909;52.202;9.876;2022-08-03T15:15:39;32.40;1.00
13673;DHT22;6909;52.202;9.876;2022-08-03T15:18:06;32.30;1.00
13673;DHT22;6909;52.202;9.876;2022-08-03T15:20:33;32.40;1.00
13673;DHT22;6909;52.202;9.876;2022-08-03T15:23:01;32.50;1.00
13673;DHT22;6909;52.202;9.876;2022-08-03T15:25:28;32.50;1.00
13673;DHT22;6909;52.202;9.876;2022-08-03T15:27:54;32.50;1.00
13673;DHT22;6909;52.202;9.876;2022-08-03T15:30:21;32.40;1.00
13673;DHT22;6909;52.202;9.876;2022-08-03T15:32:47;32.40;1.00
13673;DHT22;6909;52.202;9.876;2022-08-03T15:35:14;32.50;1.00
13673;DHT22;6909;52.202;9.876;2022-08-03T15:37:41;32.50;1.00
13673;DHT22;6909;52.202;9.876;2022-08-03T15:40:10;32.50;1.00
13673;DHT22;6909;52.202;9.876;2022-08-03T15:42:37;32.40;1.00
13673;DHT22;6909;52.202;9.876;2022-08-03T15:45:04;32.20;1.00
13673;DHT22;6909;52.202;9.876;2022-08-03T15:47:34;32.20;1.00
13673;DHT22;6909;52.202;9.876;2022-08-03T15:50:00;32.10;1.00
13673;DHT22;6909;52.202;9.876;2022-08-03T15:52:27;32.10;1.00
13673;DHT22;6909;52.202;9.876;2022-08-03T15:54:54;32.10;1.00
13673;DHT22;6909;52.202;9.876;2022-08-03T15:57:21;32.30;1.00
13673;DHT22;6909;52.202;9.876;2022-08-03T15:59:48;32.40;1.00
13673;DHT22;6909;52.202;9.876;2022-08-03T16:02:15;32.40;1.00
13673;DHT22;6909;52.202;9.876;2022-08-03T16:04:42;32.40;1.00
13673;DHT22;6909;52.202;9.876;2022-08-03T16:07:08;32.40;1.00
13673;DHT22;6909;52.202;9.876;2022-08-03T16:09:35;32.30;1.00
13673;DHT22;6909;52.202;9.876;2022-08-03T16:12:02;32.20;1.00